Flight Track Log - Related Links

Times and Time Zones

All times are in EDT time to prevent confusion due to time zone crossing. See the SWA4327 flight status page for this flight to view local times or setup timezone preferences in your user account.

Time Position Orientation Groundspeed Altitude Reporting Facility
EDT Latitude Longitude Course Direction KTS MPH feet Rate Location/Type
Fri 05:43:00 PM 41.0174 -88.1408 193° South  Level FlightAware Approximate
Fri 05:44:00 PM 40.9008 -88.1748 191° South  Level FlightAware Approximate
Fri 05:45:00 PM 40.7886 -88.1990 189° South  Level FlightAware Approximate
Fri 05:46:00 PM 40.6777 -88.2317 193° South  Level FlightAware Approximate
Fri 05:47:00 PM 40.5664 -88.2626 191° South  Level FlightAware Approximate
Fri 05:48:00 PM 40.4554 -88.2945 191° South  Level FlightAware Approximate
Fri 05:49:00 PM 40.3441 -88.3255 192° South  Level FlightAware Approximate
Fri 05:49:26 PM 41.7833 -87.7000 210° Southwest 195 224 2,500  Level Chicago TRACON
Fri 05:49:59 PM 41.7678 -87.6661 122° Southeast 212 244 3,200 2,125 Climbing Chicago Center
Fri 05:50:00 PM 40.2404 -88.3842 207° Southwest  Level FlightAware Approximate
Fri 05:51:00 PM 40.1453 -88.4650 208° Southwest  Level FlightAware Approximate
Fri 05:51:02 PM 41.7017 -87.6886 194° South 261 300 5,900  Level Chicago Center
Fri 05:52:00 PM 40.0451 -88.5352 208° Southwest  Level FlightAware Approximate
Fri 05:52:04 PM 41.6422 -87.7533 219° Southwest 282 325 9,400  Level Chicago Center
Fri 05:53:00 PM 39.9484 -88.6122 207° Southwest  Level FlightAware Approximate
Fri 05:53:06 PM 41.5706 -87.8367 221° Southwest 305 351 12,300  Level Chicago Center
Fri 05:54:00 PM 39.8476 -88.6808 210° Southwest  Level FlightAware Approximate
Fri 05:54:09 PM 41.4953 -87.9250 221° Southwest 358 412 15,000  Level Chicago Center
Fri 05:55:10 PM 41.4086 -88.0228 220° Southwest 383 441 17,800 2,419 Climbing Chicago Center
Fri 05:56:13 PM 41.3072 -88.0636 197° South 396 456 20,000 2,016 Climbing Chicago Center
Fri 05:57:15 PM 41.1950 -88.1000 194° South 411 473 22,000 1,935 Climbing Chicago Center
Fri 05:58:17 PM 41.0853 -88.1636 204° Southwest 429 494 24,000 2,274 Climbing Chicago Center
Fri 05:59:19 PM 40.9789 -88.2364 207° Southwest 431 496 26,700 2,177 Climbing Chicago Center
Fri 06:00:21 PM 40.8539 -88.3233 208° Southwest 424 488 28,500 1,536 Climbing Chicago Center
Fri 06:01:24 PM 40.7433 -88.3994 208° Southwest 442 509 29,900 1,536 Climbing Chicago Center
Fri 06:02:26 PM 40.6317 -88.4750 207° Southwest 447 514 31,700 1,632 Climbing Chicago Center
Fri 06:03:29 PM 40.5219 -88.5519 208° Southwest 448 516 33,300 1,452 Climbing Chicago Center
Fri 06:04:30 PM 40.4111 -88.6261 207° Southwest 448 516 34,700 1,317 Climbing Chicago Center
Fri 06:05:32 PM 40.2969 -88.7011 207° Southwest 451 519 36,000 960 Climbing Chicago Center
Fri 06:06:35 PM 40.1647 -88.7900 207° Southwest 451 519 36,700 960 Climbing Chicago Center
Fri 06:07:37 PM 40.0556 -88.8636 207° Southwest 446 513 38,000 667 Climbing Chicago Center
Fri 06:08:32 PM 39.9686 -88.9203 207° Southwest 444 511 38,000  Level Kansas City Center
Fri 06:09:33 PM 39.8608 -88.9931 207° Southwest 439 505 38,000  Level Kansas City Center
Fri 06:10:37 PM 39.7519 -89.0658 207° Southwest 437 503 38,000  Level Kansas City Center
Fri 06:11:38 PM 39.6228 -89.1483 206° Southwest 434 499 38,000  Level Kansas City Center
Fri 06:12:39 PM 39.5161 -89.2203 207° Southwest 433 498 38,000  Level Kansas City Center
Fri 06:14:43 PM 39.2958 -89.3656 207° Southwest 433 498 38,000  Level Kansas City Center
Fri 06:15:47 PM 39.1881 -89.4344 206° Southwest 433 498 38,000  Level Kansas City Center
Fri 06:16:48 PM 39.0697 -89.5133 207° Southwest 433 498 38,000  Level Kansas City Center
Fri 06:17:52 PM 38.9606 -89.5839 207° Southwest 433 498 38,000  Level Kansas City Center
Fri 06:18:53 PM 38.8508 -89.6533 206° Southwest 434 499 38,000  Level Kansas City Center
Fri 06:19:54 PM 38.7336 -89.7289 207° Southwest 434 499 38,000  Level Kansas City Center
Fri 06:20:57 PM 38.6389 -89.7928 208° Southwest 434 499 38,000  Level Kansas City Center
Fri 06:22:01 PM 38.5086 -89.8731 206° Southwest 433 498 38,000  Level Kansas City Center
Fri 06:23:01 PM 38.4014 -89.9425 207° Southwest 433 498 38,000  Level Kansas City Center
Fri 06:24:02 PM 38.2989 -90.0067 206° Southwest 434 499 38,000  Level Kansas City Center
Fri 06:25:06 PM 38.1883 -90.0750 206° Southwest 437 503 38,000  Level Kansas City Center
Fri 06:26:07 PM 38.0803 -90.1450 207° Southwest 437 503 38,000  Level Kansas City Center
Fri 06:27:10 PM 37.9489 -90.2264 206° Southwest 437 503 38,000  Level Kansas City Center
Fri 06:28:11 PM 37.8403 -90.2961 207° Southwest 437 503 38,000  Level Kansas City Center
Fri 06:29:15 PM 37.7297 -90.3683 207° Southwest 443 510 38,000  Level Kansas City Center
Fri 06:30:15 PM 37.6192 -90.4317 204° Southwest 441 507 38,000  Level Kansas City Center
Fri 06:31:19 PM 37.5106 -90.5042 208° Southwest 441 507 38,000  Level Kansas City Center
Fri 06:32:19 PM 37.4006 -90.5689 205° Southwest 441 507 38,000  Level Kansas City Center
Fri 06:33:23 PM 37.2672 -90.6517 206° Southwest 433 498 38,000  Level Kansas City Center
Fri 06:34:24 PM 37.1592 -90.7175 206° Southwest 433 498 38,000  Level Kansas City Center
Fri 06:35:19 PM 37.0678 -90.7725 206° Southwest 436 502 38,000  Level Memphis Center
Fri 06:36:20 PM 36.9667 -90.8347 206° Southwest 434 499 38,000  Level Memphis Center
Fri 06:37:22 PM 36.8383 -90.9117 206° Southwest 430 495 38,000  Level Memphis Center
Fri 06:38:24 PM 36.7328 -90.9753 206° Southwest 428 493 38,000  Level Memphis Center
Fri 06:39:25 PM 36.6264 -91.0403 206° Southwest 428 493 38,000  Level Memphis Center
Fri 06:40:27 PM 36.5083 -91.1106 206° Southwest 429 494 38,000  Level Memphis Center
Fri 06:41:28 PM 36.4086 -91.1697 206° Southwest 430 495 38,000  Level Memphis Center
Fri 06:42:30 PM 36.3006 -91.2353 206° Southwest 431 496 38,000  Level Memphis Center
Fri 06:43:32 PM 36.1911 -91.3000 206° Southwest 431 496 38,000  Level Memphis Center
Fri 06:44:33 PM 36.0600 -91.3797 206° Southwest 435 501 38,000  Level Memphis Center
Fri 06:45:35 PM 35.9508 -91.4428 205° Southwest 435 501 38,000  Level Memphis Center
Fri 06:46:36 PM 35.8561 -91.4981 205° Southwest 435 501 38,000  Level Memphis Center
Fri 06:47:38 PM 35.7144 -91.5461 195° South 440 506 38,000  Level Memphis Center
Fri 06:48:40 PM 35.5975 -91.5844 195° South 438 504 38,000  Level Memphis Center
Fri 06:49:41 PM 35.4781 -91.6206 194° South 438 504 38,000  Level Memphis Center
Fri 06:50:43 PM 35.3600 -91.6575 194° South 438 504 38,000  Level Memphis Center
Fri 06:51:44 PM 35.2408 -91.6950 194° South 438 504 38,000  Level Memphis Center
Fri 06:52:46 PM 35.1211 -91.7317 194° South 438 504 38,000  Level Memphis Center
Fri 06:53:47 PM 35.0025 -91.7697 195° South 438 504 38,000  Level Memphis Center
Fri 06:54:49 PM 34.8822 -91.8064 194° South 439 505 38,000  Level Memphis Center
Fri 06:55:51 PM 34.7606 -91.8447 195° South 445 512 38,000  Level Memphis Center
Fri 06:56:52 PM 34.6142 -91.8892 194° South 448 516 38,000  Level Memphis Center
Fri 06:57:54 PM 34.4922 -91.9275 195° South 448 516 38,000  Level Memphis Center
Fri 06:58:55 PM 34.3706 -91.9642 194° South 448 516 38,000  Level Memphis Center
Fri 06:59:57 PM 34.2500 -92.0003 194° South 448 516 38,000  Level Memphis Center
Fri 07:00:58 PM 34.1297 -92.0361 194° South 448 516 38,000  Level Memphis Center
Fri 07:02:00 PM 34.0081 -92.0733 194° South 448 516 38,000  Level Memphis Center
Fri 07:03:02 PM 33.8869 -92.1117 195° South 448 516 38,000  Level Memphis Center
Fri 07:04:03 PM 33.7647 -92.1469 193° South 448 516 38,000  Level Memphis Center
Fri 07:05:05 PM 33.6172 -92.1908 194° South 448 516 38,000  Level Memphis Center
Fri 07:06:07 PM 33.4956 -92.2286 195° South 448 516 38,000  Level Memphis Center
Fri 07:07:08 PM 33.3733 -92.2656 194° South 449 517 38,000  Level Memphis Center
Fri 07:08:10 PM 33.2500 -92.3022 194° South 450 518 38,000  Level Memphis Center
Fri 07:09:11 PM 33.1275 -92.3394 194° South 450 518 38,000  Level Memphis Center
Fri 07:10:12 PM 33.0086 -92.3731 193° South 451 519 38,000  Level Fort Worth Center
Fri 07:11:13 PM 32.8839 -92.4094 194° South 455 524 38,000  Level Fort Worth Center
Fri 07:12:16 PM 32.7603 -92.4478 195° South 456 525 38,000  Level Fort Worth Center
Fri 07:13:18 PM 32.6503 -92.5247 211° Southwest 457 526 38,000  Level Fort Worth Center
Fri 07:14:20 PM 32.5189 -92.6242 213° Southwest 463 533 38,000  Level Fort Worth Center
Fri 07:15:22 PM 32.4106 -92.7075 213° Southwest 463 533 38,000  Level Fort Worth Center
Fri 07:16:24 PM 32.3089 -92.7925 215° Southwest 473 544 38,000  Level Fort Worth Center
Fri 07:17:26 PM 32.1781 -92.8900 212° Southwest 467 537 38,000  Level Fort Worth Center
Fri 07:18:29 PM 32.0706 -92.9719 213° Southwest 465 535 38,000  Level Fort Worth Center
Fri 07:19:31 PM 31.9642 -93.0519 213° Southwest 463 533 38,000  Level Fort Worth Center
Fri 07:20:33 PM 31.8592 -93.1331 213° Southwest 459 528 38,000  Level Fort Worth Center
Fri 07:21:35 PM 31.7519 -93.2117 212° Southwest 458 527 38,000  Level Fort Worth Center
Fri 07:22:37 PM 31.6256 -93.3069 213° Southwest 458 527 38,000  Level Fort Worth Center
Fri 07:23:39 PM 31.5192 -93.3867 213° Southwest 457 526 38,000  Level Fort Worth Center
Fri 07:24:41 PM 31.4131 -93.4658 212° Southwest 457 526 38,000  Level Fort Worth Center
Fri 07:25:44 PM 31.3039 -93.5442 212° Southwest 458 527 38,000  Level Fort Worth Center
Fri 07:26:46 PM 31.1958 -93.6236 212° Southwest 459 528 38,000  Level Fort Worth Center
Fri 07:27:48 PM 31.0664 -93.7183 212° Southwest 459 528 38,000  Level Fort Worth Center
Fri 07:28:50 PM 30.9608 -93.7967 212° Southwest 459 528 38,000 -435 Level Fort Worth Center
Fri 07:29:52 PM 30.8522 -93.8769 212° Southwest 460 529 37,100 -1,870 Descending Fort Worth Center
Fri 07:31:08 PM 30.7125 -93.9811 213° Southwest 459 528 33,700 -2,284 Descending Houston Center
Fri 07:32:06 PM 30.6011 -94.0636 213° Southwest 456 525 32,000 -1,816 Descending Houston Center
Fri 07:32:24 PM 30.5758 -94.0817 212° Southwest 454 522 31,400 -2,000 Descending Houston Center
Fri 07:33:12 PM 30.5006 -94.1356 212° Southwest 455 524 29,800 -2,224 Descending Houston Center
Fri 07:34:20 PM 30.3758 -94.2272 212° Southwest 433 498 27,100 -2,279 Descending Houston Center
Fri 07:35:21 PM 30.2719 -94.3017 212° Southwest 418 481 24,900 -2,121 Descending Houston Center
Fri 07:36:16 PM 30.2144 -94.4011 236° Southwest 401 461 23,000 -2,035 Descending Houston Center
Fri 07:37:16 PM 30.1819 -94.5189 252° West 390 449 21,000 -1,905 Descending Houston Center
Fri 07:38:22 PM 30.1508 -94.6317 252° West 383 441 19,000 -1,967 Descending Houston Center
Fri 07:39:18 PM 30.1203 -94.7494 253° West 368 423 17,000 -2,103 Descending Houston Center
Fri 07:40:19 PM 30.0889 -94.8597 252° West 358 412 14,900 -1,615 Descending Houston Center
Fri 07:41:28 PM 30.0558 -94.9844 253° West 359 413 13,500 -1,219 Descending Houston Center
Fri 07:42:27 PM 29.9992 -95.0664 231° Southwest 318 366 12,300 -1,161 Descending Houston Center
Fri 07:43:32 PM 29.9311 -95.1203 214° Southwest 309 356 11,100 -1,082 Descending Houston Center
Fri 07:44:29 PM 29.8572 -95.1683 209° Southwest 299 344 10,100 -1,068 Descending Houston Center
Fri 07:45:30 PM 29.7792 -95.2092 204° Southwest 294 338 9,000 -1,289 Descending Houston Center
Fri 07:46:30 PM 29.7589 -95.2839 253° West 267 307 7,500 -2,164 Descending Houston Center
Fri 07:47:32 PM 29.7786 -95.3633 286° West 248 285 4,600 -2,488 Descending Houston Center
Fri 07:48:33 PM 29.7692 -95.4197 259° West 209 241 2,400 -1,279 Descending Houston Center
Fri 07:49:34 PM 29.7300 -95.3811 139° Southeast 174 200 2,000 -443 Descending Houston Center
Fri 07:50:35 PM 29.7017 -95.3461 133° Southeast 141 162 1,500 -507 Descending Houston Center
Fri 07:50:45 PM 29.6997 -95.3431 126° Southeast 178 205 1,400 -689 Descending Houston Center
Fri 07:51:36 PM 29.6736 -95.3158 138° Southeast 127 146 800 -581 Descending Houston Center
Fri 07:51:47 PM 29.6744 -95.3136 67° East 151 174 800 -575 Level Houston Center
Fri 07:52:49 PM 29.6492 -95.2831 134° Southeast 138 159 100 -677 Descending Houston Center
Fri 07:54:00 PM 29.6454 -95.2789 240° Southwest  Level Estimated

Login

Don't have an account? Register now (free) for customized features, flight alerts, and more!